Valparaiso, Chile
Current Conditions -  °F | °C
As of 9:00 AM on Saturday 22 Nov 2014 (Local Time) from SCVM Reporting Station
Haze Haze  
Wind Chill: 12°   Ceiling: 800
Heat Index: 12°   Visibility: 1.2mi
Dew Point: 11°   Wind: 7mph
Humidity: 94%   Direction: 330°NNW
Pressure: 30.03"   Gusts: NA
Location:  33.04°S, 71.64°W
Report Text: SCVM 221300Z 33006KT 2000 BR BKN008 12/11 Q1017
Loading
Personal Weather Stations






























Interactive Weather Map New forecast layout! Learn more

10-Day Weather Forecast

Advertisements
Track Severe Weather on mobile